LFRS/NTE METAR and TAF weather

Enter ICAO airport designator
Station Type Date Time Source
LFRS METAR 2021/09/16 11:00 UTC NOAA

LFRS 161100Z AUTO 01005KT 320V060 9999 FEW024 BKN049 21/14 Q1019 NOSIG


Station Type Date Time Source
LFRS Decoded METAR 2021/09/16 11:00 UTC NOAA

Nantes, France (LFRS) 47-10N 001-36W 27M
Sep 16, 2021 - 07:00 AM EDT / 2021.09.16 1100 UTC
Wind: from the N (010 degrees) at 6 MPH (5 KT) (direction variable):0
Visibility: greater than 7 mile(s):0
Sky conditions: mostly cloudy
Temperature: 69 F (21 C)
Dew Point: 57 F (14 C)
Relative Humidity: 64%
Pressure (altimeter): 30.09 in. Hg (1019 hPa)
ob: LFRS 161100Z AUTO 01005KT 320V060 9999 FEW024 BKN049 21/14 Q1019 NOSIG
cycle: 11

Station Type Date Time Source
LFRS TAF 2021/09/16 06:21 UTC NOAA

TAF LFRS 160500Z 1606/1712 36005KT 9999 SCT030
TEMPO 1606/1607 4000 BR PROB40
TEMPO 1703/1707 0500 FG VV///

Example: see airport list